Time;durP1;ratioP1;P1;durP2;ratioP2;P2;SDS_P1;SDS_P2;PMS_P1;PMS_P2;Temp;Humidity;BMP_temperature;BMP_pressure;BME280_temperature;BME280_humidity;BME280_pressure;Samples;Min_cycle;Max_cycle;Signal;HPM_P1;HPM_P2
2021/03/11 00:01:37;;;;;;;16.30;9.13;;;7.00;99.90;;;7.52;100.00;97443.88;5007064;28;20463;-78
2021/03/11 00:04:05;;;;;;;15.93;9.00;;;7.00;99.90;;;7.50;100.00;97448.44;5007445;28;20454;-78
2021/03/11 00:06:33;;;;;;;18.00;9.80;;;7.00;99.90;;;7.50;100.00;97444.03;5005387;28;20459;-78
2021/03/11 00:09:01;;;;;;;15.00;8.30;;;7.00;99.90;;;7.50;100.00;97444.03;5007612;28;20495;-78
2021/03/11 00:11:29;;;;;;;19.60;8.53;;;7.00;99.90;;;7.44;100.00;97426.56;5008594;28;20836;-78
2021/03/11 00:13:57;;;;;;;16.33;9.10;;;6.80;99.90;;;7.47;100.00;97420.19;5008045;28;20451;-79
2021/03/11 00:16:24;;;;;;;15.80;8.97;;;6.90;99.90;;;7.49;100.00;97424.25;5004101;28;21254;-78
2021/03/11 00:18:53;;;;;;;14.13;8.33;;;6.90;99.90;;;7.51;100.00;97432.66;5004958;28;20467;-78
2021/03/11 00:21:20;;;;;;;16.93;7.83;;;6.90;99.90;;;7.50;100.00;97420.63;5009994;28;21047;-79
2021/03/11 00:23:48;;;;;;;17.20;7.90;;;6.90;99.90;;;7.55;100.00;97423.50;5009178;28;21014;-78
2021/03/11 00:26:16;;;;;;;16.37;8.10;;;7.00;99.90;;;7.53;100.00;97417.66;5008285;28;20467;-78
2021/03/11 00:28:43;;;;;;;14.63;7.70;;;7.00;99.90;;;7.56;100.00;97408.72;5007073;28;20529;-78
2021/03/11 00:31:11;;;;;;;14.83;7.57;;;7.00;99.90;;;7.57;100.00;97405.91;5008974;28;20475;-78
2021/03/11 00:33:38;;;;;;;15.03;8.60;;;7.00;99.90;;;7.55;100.00;97412.28;5002450;28;20461;-78
2021/03/11 00:36:08;;;;;;;16.23;8.00;;;7.00;99.90;;;7.58;100.00;97412.72;5006481;28;20474;-78
2021/03/11 00:38:36;;;;;;;14.00;7.90;;;7.10;99.90;;;7.57;100.00;97398.09;5009718;28;20461;-78
2021/03/11 00:41:04;;;;;;;12.60;7.37;;;7.10;99.90;;;7.59;100.00;97413.53;5007741;28;20485;-79
2021/03/11 00:43:31;;;;;;;18.30;8.30;;;7.10;99.90;;;7.60;100.00;97405.53;5006090;28;20466;-78
2021/03/11 00:45:59;;;;;;;14.17;8.03;;;7.10;99.90;;;7.61;100.00;97393.34;5008760;28;20613;-78
2021/03/11 00:48:26;;;;;;;20.13;8.10;;;7.10;99.90;;;7.63;100.00;97393.16;5007440;28;21106;-78
2021/03/11 00:50:54;;;;;;;16.57;7.60;;;7.10;99.90;;;7.59;100.00;97383.13;5008191;28;20470;-78
2021/03/11 00:53:23;;;;;;;13.30;7.27;;;7.10;99.90;;;7.60;100.00;97378.75;5009906;28;20960;-78
2021/03/11 00:55:50;;;;;;;16.07;8.40;;;7.00;99.90;;;7.60;100.00;97382.13;5006658;28;20486;-78
2021/03/11 00:58:18;;;;;;;11.50;7.27;;;7.10;99.90;;;7.57;100.00;97371.28;5006607;28;20517;-78
2021/03/11 01:00:46;;;;;;;15.57;7.57;;;7.00;99.90;;;7.59;100.00;97364.09;5007230;28;20967;-78
2021/03/11 01:03:14;;;;;;;11.20;8.20;;;7.00;99.90;;;7.65;100.00;97359.94;5007525;28;20465;-78
2021/03/11 01:05:42;;;;;;;14.30;7.20;;;7.10;99.90;;;7.67;100.00;97358.00;5007509;28;20462;-78
2021/03/11 01:08:10;;;;;;;14.70;7.93;;;7.20;99.90;;;7.68;100.00;97355.19;5009008;28;20491;-78
2021/03/11 01:10:38;;;;;;;12.87;6.50;;;7.20;99.90;;;7.66;100.00;97366.78;4998600;28;20467;-78
2021/03/11 01:13:06;;;;;;;15.17;7.37;;;7.10;99.90;;;7.70;100.00;97352.41;5001827;28;20873;-78
2021/03/11 01:15:36;;;;;;;12.27;6.97;;;7.20;99.90;;;7.70;100.00;97360.22;5005291;28;20482;-78
2021/03/11 01:18:06;;;;;;;10.10;6.40;;;7.10;99.90;;;7.71;100.00;97354.81;5006586;28;20463;-79
2021/03/11 01:20:34;;;;;;;14.07;7.40;;;7.20;99.90;;;7.70;100.00;97342.00;5007819;28;20552;-78
2021/03/11 01:23:02;;;;;;;14.50;8.07;;;7.10;99.90;;;7.73;100.00;97333.81;5007352;28;20537;-78
2021/03/11 01:25:30;;;;;;;13.57;6.90;;;7.20;99.90;;;7.73;100.00;97331.22;5008602;28;20451;-78
2021/03/11 01:27:58;;;;;;;13.70;7.17;;;7.20;99.90;;;7.72;100.00;97325.19;5005480;28;20463;-79
2021/03/11 01:30:26;;;;;;;9.50;5.87;;;7.20;99.90;;;7.73;100.00;97318.22;5006477;28;20529;-78
2021/03/11 01:32:53;;;;;;;13.63;6.87;;;7.20;99.90;;;7.74;100.00;97317.22;5006426;28;20506;-78
2021/03/11 01:35:21;;;;;;;11.83;7.23;;;7.30;99.90;;;7.74;100.00;97323.22;5007592;28;20478;-78
2021/03/11 01:37:49;;;;;;;11.23;6.30;;;7.20;99.90;;;7.77;100.00;97307.25;5006636;28;20842;-78
2021/03/11 01:40:18;;;;;;;7.77;5.67;;;7.20;99.90;;;7.78;100.00;97308.84;5006249;28;20479;-78
2021/03/11 01:42:46;;;;;;;10.07;5.77;;;7.30;99.90;;;7.78;100.00;97301.03;5006646;28;20471;-78
2021/03/11 01:45:17;;;;;;;12.83;6.50;;;7.30;99.90;;;7.78;100.00;97295.00;5006730;28;20489;-78
2021/03/11 01:47:45;;;;;;;10.67;5.03;;;7.30;99.90;;;7.82;100.00;97280.63;5004992;28;20462;-78
2021/03/11 01:50:13;;;;;;;10.50;6.53;;;7.30;99.90;;;7.82;100.00;97283.25;5005951;28;20499;-78
2021/03/11 01:52:42;;;;;;;10.00;5.60;;;7.30;99.90;;;7.84;100.00;97273.47;5005246;28;20463;-78
2021/03/11 01:55:12;;;;;;;15.57;5.90;;;7.30;99.90;;;7.83;100.00;97275.25;5005973;28;20468;-78
2021/03/11 01:57:41;;;;;;;10.50;6.10;;;7.30;99.90;;;7.81;100.00;97282.44;5004227;28;20490;-78
2021/03/11 02:00:12;;;;;;;6.80;4.87;;;7.30;99.90;;;7.85;100.00;97267.25;5007227;28;20475;-79
2021/03/11 02:02:42;;;;;;;14.10;5.83;;;7.30;99.90;;;7.83;100.00;97264.03;5006926;28;20467;-79
2021/03/11 02:05:12;;;;;;;9.20;5.10;;;7.30;99.90;;;7.85;100.00;97246.41;5006384;28;20467;-78
2021/03/11 02:07:40;;;;;;;15.80;6.20;;;7.40;99.90;;;7.86;100.00;97250.63;5005752;28;20471;-78
2021/03/11 02:10:12;;;;;;;10.53;5.50;;;7.40;99.90;;;7.84;100.00;97253.44;5005300;28;20497;-78
2021/03/11 02:12:56;;;;;;;11.93;6.10;;;7.30;99.90;;;7.83;100.00;97238.00;5006217;28;20455;-78
2021/03/11 02:15:30;;;;;;;10.33;5.13;;;7.30;99.90;;;7.81;100.00;97246.00;5004087;28;21049;-79
2021/03/11 02:18:09;;;;;;;9.17;5.60;;;7.30;99.90;;;7.82;100.00;97244.19;5006002;28;20982;-79
2021/03/11 02:21:03;;;;;;;8.63;4.93;;;7.30;99.90;;;7.78;100.00;97232.56;5006972;28;20471;-78
2021/03/11 02:24:22;;;;;;;13.33;6.23;;;7.20;99.90;;;7.82;100.00;97223.38;5006927;28;20467;-78
2021/03/11 02:27:26;;;;;;;11.30;6.40;;;7.20;99.90;;;7.82;100.00;97223.38;5007575;28;20455;-78
2021/03/11 02:29:55;;;;;;;8.43;5.50;;;7.30;99.90;;;7.75;100.00;97225.13;5007633;28;20898;-78
2021/03/11 02:32:26;;;;;;;12.23;6.60;;;7.20;99.90;;;7.68;100.00;97213.88;5006459;28;20478;-79
2021/03/11 02:35:00;;;;;;;10.27;4.30;;;7.10;99.90;;;7.72;100.00;97220.31;5007357;28;20471;-78
2021/03/11 02:37:33;;;;;;;9.17;5.80;;;7.20;99.90;;;7.71;100.00;97216.09;5006438;28;20966;-78
2021/03/11 02:40:08;;;;;;;11.27;5.90;;;7.20;99.90;;;7.67;100.00;97209.69;5004790;28;20451;-78
2021/03/11 02:42:38;;;;;;;11.70;5.80;;;7.10;99.90;;;7.62;100.00;97220.66;5005292;28;20540;-78
2021/03/11 02:45:10;;;;;;;8.20;5.20;;;7.10;99.90;;;7.63;100.00;97205.84;5006543;28;21036;-79
2021/03/11 02:47:41;;;;;;;9.87;5.90;;;7.10;99.90;;;7.57;100.00;97208.19;5006229;28;20739;-79
2021/03/11 02:50:11;;;;;;;9.90;5.57;;;7.10;99.90;;;7.57;100.00;97208.19;5004077;28;20948;-78
2021/03/11 02:52:41;;;;;;;8.23;5.17;;;7.00;99.90;;;7.60;100.00;97202.59;5004943;28;20470;-78
2021/03/11 02:55:22;;;;;;;10.30;5.30;;;7.10;99.90;;;7.60;100.00;97192.19;5004112;28;20486;-78
2021/03/11 02:57:52;;;;;;;12.73;6.17;;;7.00;99.90;;;7.62;100.00;97197.22;5006545;28;20505;-78
2021/03/11 03:00:23;;;;;;;11.93;6.13;;;7.00;99.90;;;7.55;100.00;97191.97;5003595;28;20502;-78
2021/03/11 03:02:53;;;;;;;9.50;5.00;;;6.90;99.90;;;7.58;100.00;97191.59;5006302;28;20463;-79
2021/03/11 03:05:25;;;;;;;10.83;5.60;;;7.00;99.90;;;7.61;100.00;97198.22;5006079;28;20471;-78
2021/03/11 03:07:57;;;;;;;20.87;12.00;;;7.10;99.90;;;7.59;100.00;97189.81;5005555;28;20483;-80
2021/03/11 03:10:29;;;;;;;10.87;5.90;;;7.10;99.90;;;7.55;100.00;97205.00;5005866;28;20557;-78
2021/03/11 03:13:03;;;;;;;9.03;5.40;;;7.10;99.90;;;7.53;100.00;97193.94;5004480;28;20494;-78
2021/03/11 03:15:32;;;;;;;8.93;5.27;;;7.00;99.90;;;7.55;100.00;97191.97;5002140;28;20496;-78
2021/03/11 03:18:00;;;;;;;9.77;5.90;;;7.10;99.90;;;7.49;100.00;97190.16;5008015;28;20486;-78
2021/03/11 03:20:29;;;;;;;7.27;4.50;;;7.00;99.90;;;7.50;100.00;97188.31;5007131;28;20964;-78
2021/03/11 03:22:58;;;;;;;13.27;5.20;;;7.00;99.90;;;7.47;100.00;97176.50;5010596;28;20513;-79
2021/03/11 03:25:46;;;;;;;11.03;5.60;;;7.00;99.90;;;7.44;100.00;97179.50;5010286;28;20838;-78
2021/03/11 03:28:14;;;;;;;10.33;5.90;;;6.90;99.90;;;7.46;100.00;97174.88;5007969;28;21030;-78
2021/03/11 03:30:45;;;;;;;10.77;5.73;;;7.00;99.90;;;7.40;100.00;97169.63;5009613;28;20458;-78
2021/03/11 03:33:15;;;;;;;15.47;5.53;;;6.90;99.90;;;7.39;100.00;97155.06;5009243;28;21055;-79
2021/03/11 03:35:43;;;;;;;7.70;5.40;;;6.80;99.90;;;7.41;100.00;97158.25;5009262;28;20466;-78
2021/03/11 03:38:13;;;;;;;9.47;5.27;;;6.90;99.90;;;7.41;100.00;97153.84;5010671;28;20787;-78
2021/03/11 03:40:41;;;;;;;14.60;5.90;;;6.80;99.90;;;7.42;100.00;97158.06;5009212;28;20981;-78
2021/03/11 03:43:18;;;;;;;14.33;5.20;;;6.90;99.90;;;7.40;100.00;97154.84;5007179;28;20474;-78
2021/03/11 03:45:54;;;;;;;11.23;5.37;;;6.80;99.90;;;7.37;100.00;97157.81;5009604;28;20537;-79
2021/03/11 03:48:30;;;;;;;8.23;5.30;;;6.80;99.90;;;7.33;100.00;97147.97;5008555;28;20770;-78
2021/03/11 03:50:59;;;;;;;10.40;5.80;;;6.80;99.90;;;7.33;100.00;97156.59;5006317;28;20470;-78
2021/03/11 03:53:34;;;;;;;11.90;6.23;;;6.80;99.90;;;7.31;100.00;97150.78;5009008;28;20470;-79
2021/03/11 03:56:17;;;;;;;9.10;4.70;;;6.80;99.90;;;7.34;100.00;97141.78;5008487;28;20493;-78
2021/03/11 03:58:48;;;;;;;11.40;6.17;;;6.80;99.90;;;7.36;100.00;97148.41;5008955;28;20451;-78
2021/03/11 04:01:19;;;;;;;11.93;6.03;;;6.80;99.90;;;7.32;100.00;97144.59;5009361;28;21005;-78
2021/03/11 04:03:49;;;;;;;9.40;5.80;;;6.80;99.90;;;7.28;100.00;97135.56;5009037;28;20474;-79
2021/03/11 04:06:17;;;;;;;8.13;5.27;;;6.70;99.90;;;7.31;100.00;97139.56;5006439;28;20470;-79
2021/03/11 04:08:47;;;;;;;8.13;5.20;;;6.80;99.90;;;7.32;100.00;97123.00;5008404;28;20536;-78
2021/03/11 04:11:18;;;;;;;8.37;5.27;;;6.80;99.90;;;7.31;100.00;97129.19;5009393;28;20509;-79
2021/03/11 04:13:47;;;;;;;7.13;4.23;;;6.70;99.90;;;7.28;100.00;97130.38;5007831;28;20473;-78
2021/03/11 04:16:19;;;;;;;7.20;4.30;;;6.70;99.90;;;7.25;100.00;97125.53;5003790;28;20513;-79
2021/03/11 04:18:48;;;;;;;8.07;5.37;;;6.70;99.90;;;7.32;100.00;97125.59;5009493;28;20478;-79
2021/03/11 04:21:17;;;;;;;9.30;5.00;;;6.70;99.90;;;7.29;100.00;97120.78;5007523;28;20465;-78
2021/03/11 04:23:47;;;;;;;6.57;4.40;;;6.70;99.90;;;7.27;100.00;97114.94;5010084;28;20941;-78
2021/03/11 04:26:27;;;;;;;6.10;3.73;;;6.70;99.90;;;7.24;100.00;97113.53;5005006;28;20455;-79
2021/03/11 04:28:55;;;;;;;9.20;4.40;;;6.70;99.90;;;7.23;100.00;97105.91;5007086;28;20491;-79
2021/03/11 04:31:25;;;;;;;11.13;5.03;;;6.70;99.90;;;7.25;100.00;97103.94;5008445;28;20482;-78
2021/03/11 04:33:55;;;;;;;8.73;3.57;;;6.70;99.90;;;7.21;100.00;97097.50;5009808;28;20513;-79
2021/03/11 04:36:24;;;;;;;11.60;4.30;;;6.70;99.90;;;7.25;100.00;97083.94;5009547;28;20458;-79
2021/03/11 04:38:53;;;;;;;7.83;4.60;;;6.70;99.90;;;7.24;100.00;97084.94;5008026;28;20955;-78
2021/03/11 04:41:25;;;;;;;7.57;4.43;;;6.70;99.90;;;7.24;100.00;97082.34;5003523;28;20459;-79
2021/03/11 04:43:54;;;;;;;6.10;3.77;;;6.70;99.90;;;7.30;100.00;97081.56;5007654;28;20553;-78
2021/03/11 04:46:23;;;;;;;8.03;4.60;;;6.80;99.90;;;7.31;100.00;97082.38;5002149;28;21049;-79
2021/03/11 04:48:53;;;;;;;4.80;3.90;;;6.80;99.90;;;7.33;100.00;97072.56;5005993;28;20606;-80
2021/03/11 04:51:23;;;;;;;10.33;4.07;;;6.80;99.90;;;7.27;100.00;97083.75;5006588;28;20524;-79
2021/03/11 04:53:54;;;;;;;7.73;5.17;;;6.70;99.90;;;7.23;100.00;97070.31;5003685;28;20474;-78
2021/03/11 04:56:23;;;;;;;6.33;5.13;;;6.70;99.90;;;7.28;100.00;97052.38;5006586;28;20486;-78
2021/03/11 04:58:50;;;;;;;10.47;6.13;;;6.70;99.90;;;7.26;100.00;97053.53;5007512;28;20463;-78
2021/03/11 05:01:24;;;;;;;7.13;4.93;;;6.70;99.90;;;7.24;100.00;97056.34;5008041;28;20466;-78
2021/03/11 05:03:53;;;;;;;12.80;6.33;;;6.70;99.90;;;7.27;100.00;97049.94;5007291;28;20514;-79
2021/03/11 05:06:21;;;;;;;18.80;11.43;;;6.70;99.90;;;7.25;100.00;97037.16;5005711;28;20542;-80
2021/03/11 05:08:48;;;;;;;6.30;4.83;;;6.70;99.90;;;7.29;100.00;97033.16;5004147;28;20459;-77
2021/03/11 05:11:16;;;;;;;4.50;3.60;;;6.70;99.90;;;7.30;100.00;97029.56;5009446;28;20533;-77
2021/03/11 05:13:44;;;;;;;5.30;3.90;;;6.80;99.90;;;7.31;100.00;97036.38;5009330;28;20463;-77
2021/03/11 05:16:12;;;;;;;4.77;3.37;;;6.70;99.90;;;7.33;100.00;97018.78;5008387;28;20455;-77
2021/03/11 05:18:40;;;;;;;5.00;3.90;;;6.80;99.90;;;7.34;100.00;97015.19;5008657;28;20463;-77
2021/03/11 05:21:09;;;;;;;15.03;4.07;;;6.80;99.90;;;7.37;100.00;97014.00;5009010;28;20490;-77
2021/03/11 05:23:55;;;;;;;5.40;3.40;;;6.80;99.90;;;7.33;100.00;97018.78;5009130;28;20446;-77
2021/03/11 05:26:22;;;;;;;3.50;2.93;;;6.80;99.90;;;7.35;100.00;97032.41;5009509;28;20455;-77
2021/03/11 05:28:50;;;;;;;19.13;7.33;;;6.80;99.90;;;7.40;100.00;97014.41;5010257;28;20526;-76
2021/03/11 05:31:18;;;;;;;4.00;3.10;;;6.80;99.90;;;7.40;100.00;97026.59;5009037;28;21014;-77
2021/03/11 05:33:47;;;;;;;9.27;5.00;;;6.80;99.90;;;7.40;100.00;97016.22;5009221;28;21035;-78
2021/03/11 05:36:14;;;;;;;5.77;3.50;;;6.80;99.90;;;7.45;100.00;97014.66;5009147;28;20465;-78
2021/03/11 05:38:45;;;;;;;5.67;3.60;;;6.90;99.90;;;7.47;100.00;97010.03;5009606;28;20447;-77
2021/03/11 05:41:14;;;;;;;5.50;3.43;;;6.90;99.90;;;7.44;100.00;97020.84;5010347;28;20450;-77
2021/03/11 05:43:43;;;;;;;5.03;3.37;;;6.90;99.90;;;7.43;100.00;97019.22;5010255;28;20936;-77
2021/03/11 05:46:11;;;;;;;3.73;3.07;;;6.90;99.90;;;7.44;100.00;97000.03;5010314;28;20471;-77
2021/03/11 05:48:41;;;;;;;4.70;3.10;;;6.90;99.90;;;7.48;100.00;96990.03;5010596;28;20454;-77
2021/03/11 05:51:10;;;;;;;4.50;3.40;;;6.90;99.90;;;7.46;100.00;96987.63;5010473;28;20446;-78
2021/03/11 05:53:38;;;;;;;4.27;2.83;;;6.90;99.90;;;7.44;100.00;96987.03;5010384;28;20447;-78
2021/03/11 05:56:07;;;;;;;3.83;3.10;;;6.90;99.90;;;7.46;100.00;96981.66;5010128;28;20487;-77
2021/03/11 05:58:34;;;;;;;5.57;3.00;;;6.90;99.90;;;7.46;100.00;96986.84;5010224;28;20443;-78
2021/03/11 06:01:03;;;;;;;4.93;3.00;;;7.00;99.90;;;7.48;100.00;96983.06;5010328;28;20447;-78
2021/03/11 06:03:33;;;;;;;3.87;2.40;;;7.00;99.90;;;7.44;100.00;97000.03;5010169;28;21012;-77
2021/03/11 06:06:02;;;;;;;3.47;2.63;;;6.90;99.90;;;7.42;100.00;96972.63;5010057;28;20455;-78
2021/03/11 06:08:34;;;;;;;4.37;2.60;;;6.90;99.90;;;7.42;100.00;96976.03;5010217;28;20442;-77
2021/03/11 06:11:03;;;;;;;2.77;2.20;;;6.90;99.90;;;7.45;100.00;96974.84;5010427;28;21057;-77
2021/03/11 06:13:32;;;;;;;6.03;3.03;;;6.90;99.90;;;7.43;100.00;96977.63;5009745;28;20459;-78
2021/03/11 06:16:09;;;;;;;3.00;2.40;;;6.90;99.90;;;7.46;100.00;96982.44;5010536;28;20514;-78
2021/03/11 06:18:39;;;;;;;3.53;3.10;;;7.00;99.90;;;7.48;100.00;96984.84;5010585;28;20462;-77
2021/03/11 06:21:07;;;;;;;5.60;3.30;;;7.00;99.90;;;7.49;100.00;96979.47;5009959;28;20455;-78
2021/03/11 06:23:36;;;;;;;4.63;3.23;;;7.00;99.90;;;7.48;100.00;96977.84;5009580;28;20459;-78
2021/03/11 06:26:08;;;;;;;5.10;2.97;;;7.00;99.90;;;7.41;100.00;96971.81;5009941;28;20451;-78
2021/03/11 06:28:55;;;;;;;5.00;3.70;;;6.80;99.90;;;7.47;100.00;96968.44;5009827;28;20505;-77
2021/03/11 06:31:26;;;;;;;6.30;4.13;;;6.90;99.90;;;7.50;100.00;96962.84;5009785;28;20459;-77
2021/03/11 06:33:55;;;;;;;6.17;4.70;;;7.00;99.90;;;7.52;100.00;96950.47;5010292;28;20542;-78
2021/03/11 06:36:25;;;;;;;8.13;5.10;;;7.00;99.90;;;7.55;100.00;96952.66;5009324;28;20478;-78
2021/03/11 06:38:58;;;;;;;6.20;4.13;;;7.10;99.90;;;7.56;100.00;96956.06;5009921;28;20450;-77
2021/03/11 06:41:43;;;;;;;7.57;4.60;;;7.10;99.90;;;7.56;100.00;96956.06;5009203;28;20939;-78
2021/03/11 06:44:10;;;;;;;6.23;4.73;;;7.00;99.90;;;7.55;100.00;96950.06;5009135;28;20471;-78
2021/03/11 06:46:57;;;;;;;8.10;5.20;;;7.00;99.90;;;7.55;100.00;96944.88;5009607;28;20462;-77
2021/03/11 06:49:25;;;;;;;11.33;6.13;;;7.00;99.90;;;7.58;100.00;96948.88;5008989;28;20494;-78
2021/03/11 06:52:13;;;;;;;9.00;6.27;;;7.00;99.90;;;7.60;100.00;96957.28;5009148;28;20465;-78
2021/03/11 06:54:59;;;;;;;8.60;5.77;;;7.00;99.90;;;7.63;100.00;96953.50;5009235;28;20462;-78
2021/03/11 06:57:33;;;;;;;10.93;6.30;;;7.00;99.90;;;7.65;100.00;96969.69;5008888;28;20482;-78
2021/03/11 07:00:05;;;;;;;8.70;5.33;;;7.10;99.90;;;7.64;100.00;96974.09;5009482;28;20451;-78
2021/03/11 07:02:33;;;;;;;8.33;5.67;;;7.00;99.90;;;7.67;100.00;96962.53;5009311;28;20797;-78
2021/03/11 07:05:13;;;;;;;6.60;5.00;;;7.10;99.90;;;7.69;100.00;96937.91;5009449;28;20570;-78
2021/03/11 07:07:40;;;;;;;8.37;4.57;;;7.10;99.90;;;7.70;100.00;96941.31;5009599;28;20466;-78
2021/03/11 07:10:24;;;;;;;4.93;3.83;;;7.10;99.90;;;7.71;100.00;96948.09;5008684;28;20490;-77
2021/03/11 07:12:55;;;;;;;5.00;3.47;;;7.10;99.90;;;7.78;100.00;96947.13;5009537;28;20537;-77
2021/03/11 07:15:25;;;;;;;4.97;4.00;;;7.20;99.90;;;7.81;100.00;96949.31;5008747;28;20959;-78
2021/03/11 07:17:54;;;;;;;5.60;4.13;;;7.30;99.90;;;7.82;100.00;96955.34;5009678;28;20466;-77
2021/03/11 07:20:24;;;;;;;7.30;4.67;;;7.30;99.90;;;7.82;100.00;96960.53;5008947;28;20447;-78
2021/03/11 07:23:05;;;;;;;5.60;3.77;;;7.30;99.90;;;7.85;100.00;96952.34;5009370;28;20482;-78
2021/03/11 07:25:37;;;;;;;5.43;4.13;;;7.30;99.90;;;7.84;100.00;96963.78;5008926;28;20443;-78
2021/03/11 07:28:07;;;;;;;7.50;3.70;;;7.30;99.90;;;7.85;100.00;96962.75;5009220;28;20451;-77
2021/03/11 07:30:50;;;;;;;7.53;4.33;;;7.30;99.90;;;7.87;100.00;96953.78;5009182;28;20492;-78
2021/03/11 07:33:20;;;;;;;6.73;4.17;;;7.30;99.90;;;7.88;100.00;96954.56;5008990;28;20890;-78
2021/03/11 07:35:50;;;;;;;7.20;4.77;;;7.40;99.90;;;7.90;100.00;96962.97;5008752;28;20473;-77
2021/03/11 07:38:22;;;;;;;5.43;3.70;;;7.40;99.90;;;7.93;100.00;96959.97;5009019;28;20447;-78
2021/03/11 07:40:53;;;;;;;4.20;3.80;;;7.40;99.90;;;7.96;100.00;96959.56;5008964;28;20452;-78
2021/03/11 07:43:23;;;;;;;3.83;3.27;;;7.40;99.90;;;7.96;100.00;96954.38;5009350;28;20473;-78
2021/03/11 07:45:54;;;;;;;4.90;3.90;;;7.40;99.90;;;8.01;100.00;96941.59;5009093;28;20975;-78
2021/03/11 07:48:22;;;;;;;8.13;4.77;;;7.40;99.90;;;8.03;100.00;96924.75;5008419;28;20519;-78
2021/03/11 07:50:51;;;;;;;5.63;4.53;;;7.40;99.90;;;8.06;100.00;96936.56;5008607;28;20905;-78
2021/03/11 07:53:21;;;;;;;5.23;4.47;;;7.50;99.90;;;8.04;100.00;96918.56;5008310;28;20451;-78
2021/03/11 07:55:55;;;;;;;5.77;4.60;;;7.40;99.90;;;8.10;100.00;96927.38;5009119;28;20459;-78
2021/03/11 07:58:46;;;;;;;7.50;4.60;;;7.50;99.90;;;8.15;100.00;96919.78;5009508;28;20507;-78
2021/03/11 08:01:16;;;;;;;7.10;5.27;;;7.60;99.90;;;8.19;100.00;96910.53;5008782;28;20900;-77
2021/03/11 08:03:54;;;;;;;5.67;4.40;;;7.70;99.90;;;8.21;100.00;96918.16;5009421;28;20457;-77
2021/03/11 08:06:37;;;;;;;7.27;4.87;;;7.70;99.90;;;8.26;100.00;96911.34;5013116;28;20463;-78
2021/03/11 08:09:07;;;;;;;7.60;5.63;;;7.70;99.90;;;8.29;100.00;96900.56;5011412;28;20819;-77
2021/03/11 08:11:56;;;;;;;7.53;5.73;;;7.70;99.90;;;8.34;100.00;96908.56;5012129;28;20458;-78
2021/03/11 08:15:00;;;;;;;6.20;5.17;;;7.80;99.90;;;8.41;100.00;96903.34;5012521;28;20471;-78
2021/03/11 08:18:02;;;;;;;8.33;5.43;;;7.90;99.90;;;8.41;100.00;96914.59;5012713;28;20458;-78
2021/03/11 08:20:40;;;;;;;11.10;5.50;;;7.80;99.90;;;8.47;100.00;96915.56;5012530;28;20491;-78
2021/03/11 08:23:12;;;;;;;7.00;5.20;;;8.00;99.90;;;8.50;100.00;96907.38;5011869;28;20537;-77
2021/03/11 08:25:45;;;;;;;5.87;4.90;;;8.00;99.90;;;8.52;100.00;96900.16;5012088;28;20460;-77
2021/03/11 08:28:40;;;;;;;7.33;5.30;;;8.00;99.90;;;8.54;100.00;96882.50;5012531;28;21060;-78
2021/03/11 08:31:09;;;;;;;7.07;5.03;;;8.00;99.90;;;8.54;100.00;96883.31;5011822;28;20561;-78
2021/03/11 08:33:56;;;;;;;5.67;4.93;;;8.00;99.90;;;8.57;100.00;96877.69;5012142;28;20513;-78
2021/03/11 08:36:42;;;;;;;5.47;4.27;;;8.00;99.90;;;8.62;100.00;96871.06;5011681;28;20474;-78
2021/03/11 08:39:33;;;;;;;5.50;4.33;;;8.10;99.90;;;8.65;100.00;96883.69;5011350;28;20459;-78
2021/03/11 08:42:47;;;;;;;7.13;4.17;;;8.20;99.90;;;8.66;100.00;96896.53;5011845;28;20483;-78
2021/03/11 08:46:01;;;;;;;5.53;4.13;;;8.10;99.90;;;8.64;100.00;96867.28;5011538;28;20836;-77
2021/03/11 08:48:41;;;;;;;5.20;4.70;;;8.00;99.90;;;8.68;100.00;96867.66;5011741;28;20501;-77
2021/03/11 08:51:11;;;;;;;7.30;5.20;;;8.20;99.90;;;8.70;100.00;96868.25;5011998;28;20538;-78
2021/03/11 08:53:50;;;;;;;7.67;5.90;;;8.20;99.90;;;8.70;100.00;96868.25;5011295;28;20490;-78
2021/03/11 08:56:43;;;;;;;6.47;5.27;;;8.10;99.90;;;8.74;100.00;96872.88;5011084;28;20482;-77
2021/03/11 08:59:17;;;;;;;9.70;5.60;;;8.20;99.90;;;8.77;100.00;96858.63;5011711;28;20451;-77
2021/03/11 09:01:50;;;;;;;8.60;6.23;;;8.20;99.90;;;8.81;100.00;96858.00;5011234;28;20877;-77
2021/03/11 09:04:42;;;;;;;10.37;7.00;;;8.30;99.90;;;8.84;100.00;96841.16;5011198;28;20470;-77
2021/03/11 09:07:27;;;;;;;8.23;6.07;;;8.30;99.90;;;8.85;100.00;96840.16;5011476;28;20454;-77
2021/03/11 09:09:55;;;;;;;8.30;6.30;;;8.40;99.90;;;8.87;100.00;96840.75;5011654;28;20541;-77
2021/03/11 09:12:32;;;;;;;7.43;5.80;;;8.40;99.90;;;8.87;100.00;96845.94;5010866;28;20478;-78
2021/03/11 09:15:04;;;;;;;9.93;6.10;;;8.40;99.90;;;8.89;100.00;96849.94;5010380;28;20527;-78
2021/03/11 09:17:34;;;;;;;5.40;4.27;;;8.40;99.90;;;8.89;100.00;96838.72;5011370;28;20470;-78
2021/03/11 09:20:07;;;;;;;5.53;4.53;;;8.40;99.90;;;8.94;100.00;96831.09;5011586;28;20458;-78
2021/03/11 09:22:40;;;;;;;6.20;4.20;;;8.40;99.90;;;8.95;100.00;96827.47;5010716;28;20519;-78
2021/03/11 09:25:14;;;;;;;6.27;4.33;;;8.40;99.90;;;8.98;100.00;96821.84;5011098;28;20455;-78
2021/03/11 09:27:58;;;;;;;5.60;3.90;;;8.50;99.90;;;9.00;100.00;96825.03;5010732;28;20455;-78
2021/03/11 09:30:29;;;;;;;6.37;4.17;;;8.40;99.90;;;9.03;100.00;96820.22;5009804;28;20516;-78
2021/03/11 09:33:07;;;;;;;5.03;3.30;;;8.50;99.90;;;9.06;100.00;96819.00;5010985;28;20458;-78
2021/03/11 09:35:37;;;;;;;4.63;3.63;;;8.60;99.90;;;9.04;100.00;96824.44;5010243;28;20530;-78
2021/03/11 09:38:06;;;;;;;5.17;3.80;;;8.50;99.90;;;9.07;100.00;96810.16;5010802;28;20451;-78
2021/03/11 09:40:37;;;;;;;4.83;3.10;;;8.50;99.90;;;9.09;100.00;96816.00;5010377;28;20804;-77
2021/03/11 09:43:14;;;;;;;4.00;3.23;;;8.60;99.90;;;9.10;100.00;96815.78;5010713;28;20478;-78
2021/03/11 09:45:47;;;;;;;7.47;4.43;;;8.60;99.90;;;9.13;100.00;96814.53;5010351;28;20548;-77
2021/03/11 09:48:23;;;;;;;5.33;4.00;;;8.60;99.90;;;9.18;100.00;96821.75;5010142;28;20999;-79
2021/03/11 09:54:22;;;;;;;4.57;3.73;;;8.60;99.90;;;9.17;100.00;96813.13;5011080;28;20899;-77
2021/03/11 09:56:54;;;;;;;5.47;3.97;;;8.60;99.90;;;9.18;100.00;96817.34;5010669;28;20486;-78
2021/03/11 09:59:22;;;;;;;5.40;4.23;;;8.60;99.90;;;9.20;100.00;96802.28;5011386;28;20447;-77
2021/03/11 10:01:56;;;;;;;8.27;4.80;;;8.60;99.90;;;9.22;100.00;96802.88;5010732;28;20486;-77
2021/03/11 10:04:31;;;;;;;6.10;5.17;;;8.70;99.90;;;9.22;100.00;96802.06;5011311;28;20508;-77
2021/03/11 10:07:15;;;;;;;6.47;4.50;;;8.60;99.90;;;9.29;100.00;96792.41;5011121;28;20447;-77
2021/03/11 10:09:52;;;;;;;6.87;4.20;;;8.70;99.90;;;9.36;100.00;96788.75;5010581;28;20964;-77
2021/03/11 10:12:37;;;;;;;6.00;3.87;;;8.80;99.90;;;9.36;100.00;96804.41;5010558;28;20461;-77
2021/03/11 10:15:10;;;;;;;4.93;3.40;;;8.80;99.90;;;9.40;100.00;96792.56;5010230;28;20970;-77
2021/03/11 10:17:38;;;;;;;4.70;3.90;;;8.90;99.90;;;9.40;100.00;96776.91;5010381;28;20947;-77
2021/03/11 10:20:27;;;;;;;5.53;4.40;;;8.90;99.90;;;9.41;100.00;96786.31;5010173;28;20455;-77
2021/03/11 10:23:18;;;;;;;4.93;4.10;;;8.90;99.90;;;9.45;100.00;96781.47;5010182;28;20462;-77
2021/03/11 10:26:15;;;;;;;5.63;4.70;;;8.90;99.90;;;9.51;100.00;96757.16;5010895;28;20826;-77
2021/03/11 10:28:46;;;;;;;5.87;5.07;;;8.90;99.90;;;9.59;100.00;96772.53;5009453;28;20458;-77
2021/03/11 10:31:23;;;;;;;7.90;5.30;;;9.00;99.90;;;9.65;100.00;96770.91;5010732;28;20494;-77
2021/03/11 10:34:19;;;;;;;3.80;3.43;;;9.10;99.90;;;9.72;100.00;96758.59;5011180;28;20534;-77
2021/03/11 10:37:01;;;;;;;5.37;4.10;;;9.20;99.90;;;9.83;100.00;96776.16;5010371;28;20459;-77
2021/03/11 10:39:34;;;;;;;5.97;4.53;;;9.30;99.90;;;9.84;100.00;96765.50;5010381;28;21338;-77
2021/03/11 10:42:13;;;;;;;5.20;4.13;;;9.30;99.90;;;9.92;100.00;96772.28;5009455;28;20954;-77
2021/03/11 10:44:57;;;;;;;6.57;4.77;;;9.40;99.90;;;9.97;100.00;96785.47;5009059;28;20601;-77
2021/03/11 10:47:26;;;;;;;5.40;4.87;;;9.40;99.90;;;10.01;100.00;96756.13;5009601;28;20455;-77
2021/03/11 10:49:55;;;;;;;5.10;4.60;;;9.50;99.90;;;10.06;100.00;96763.31;5010057;28;20752;-77
2021/03/11 10:52:24;;;;;;;5.43;4.33;;;9.50;99.90;;;10.06;100.00;96773.78;5009865;28;20451;-77